KHIO/HIO METAR and TAF weather

Enter ICAO airport designator
Station Type Date Time Source
KHIO METAR 2019/02/21 10:53 UTC NOAA

KHIO 211053Z AUTO 00000KT 10SM CLR M02/M02 A3003 RMK AO2 SLP170 I1001 T10171022


Station Type Date Time Source
KHIO Decoded METAR 2019/02/21 10:53 UTC NOAA

PORTLAND-HILLSBORO AIRPORT, OR, United States (KHIO) 45-33N 122-57W 68M
Feb 21, 2019 - 05:53 AM EST / 2019.02.21 1053 UTC
Wind: Calm:0
Visibility: 10 mile(s):0
Sky conditions: clear
Temperature: 28.9 F (-1.7 C)
Dew Point: 28.0 F (-2.2 C)
Relative Humidity: 96%
Pressure (altimeter): 30.03 in. Hg (1016 hPa)
ob: KHIO 211053Z AUTO 00000KT 10SM CLR M02/M02 A3003 RMK AO2 SLP170 I1001 T10171022
cycle: 11

Station Type Date Time Source
KHIO TAF 2019/02/21 12:42 UTC NOAA

TAF KHIO 211140Z 2112/2212 00000KT P6SM SKC
TEMPO 2113/2117 3SM BR SCT001
FM220600 15003KT P6SM BKN150


Example: see airport list